sensor_id;sensor_type;location;lat;lon;timestamp;temperature;humidity
16625;DHT22;8426;48.496;9.098;2022-09-12T00:03:23;10.30;99.90
16625;DHT22;8426;48.496;9.098;2022-09-12T00:08:26;10.30;99.90
16625;DHT22;8426;48.496;9.098;2022-09-12T00:13:30;10.20;99.90
16625;DHT22;8426;48.496;9.098;2022-09-12T00:18:33;10.20;99.90
16625;DHT22;8426;48.496;9.098;2022-09-12T00:23:37;10.10;99.90
16625;DHT22;8426;48.496;9.098;2022-09-12T00:28:42;9.90;99.90
16625;DHT22;8426;48.496;9.098;2022-09-12T00:33:45;10.00;99.90
16625;DHT22;8426;48.496;9.098;2022-09-12T00:38:52;10.20;99.90
16625;DHT22;8426;48.496;9.098;2022-09-12T00:43:58;10.40;99.90
16625;DHT22;8426;48.496;9.098;2022-09-12T00:49:05;10.50;99.90
16625;DHT22;8426;48.496;9.098;2022-09-12T00:54:11;10.40;99.90
16625;DHT22;8426;48.496;9.098;2022-09-12T00:59:19;10.20;99.90
16625;DHT22;8426;48.496;9.098;2022-09-12T01:04:25;10.00;99.90
16625;DHT22;8426;48.496;9.098;2022-09-12T01:09:30;9.90;99.90
16625;DHT22;8426;48.496;9.098;2022-09-12T01:14:34;9.90;99.90
16625;DHT22;8426;48.496;9.098;2022-09-12T01:25:20;9.80;99.90
16625;DHT22;8426;48.496;9.098;2022-09-12T01:30:42;9.70;99.90
16625;DHT22;8426;48.496;9.098;2022-09-12T01:35:54;9.80;99.90
16625;DHT22;8426;48.496;9.098;2022-09-12T01:41:08;9.70;99.90
16625;DHT22;8426;48.496;9.098;2022-09-12T01:46:16;9.70;99.90
16625;DHT22;8426;48.496;9.098;2022-09-12T01:51:23;9.70;99.90
16625;DHT22;8426;48.496;9.098;2022-09-12T01:56:32;9.70;99.90
16625;DHT22;8426;48.496;9.098;2022-09-12T02:01:39;9.70;99.90
16625;DHT22;8426;48.496;9.098;2022-09-12T02:06:49;9.60;99.90
16625;DHT22;8426;48.496;9.098;2022-09-12T02:11:57;9.60;99.90
16625;DHT22;8426;48.496;9.098;2022-09-12T02:17:05;9.50;99.90
16625;DHT22;8426;48.496;9.098;2022-09-12T02:22:14;9.40;99.90
16625;DHT22;8426;48.496;9.098;2022-09-12T02:27:21;9.30;99.90
16625;DHT22;8426;48.496;9.098;2022-09-12T02:32:31;9.20;99.90
16625;DHT22;8426;48.496;9.098;2022-09-12T02:37:46;9.10;99.90
16625;DHT22;8426;48.496;9.098;2022-09-12T02:42:52;8.90;99.90
16625;DHT22;8426;48.496;9.098;2022-09-12T02:48:02;8.80;99.90
16625;DHT22;8426;48.496;9.098;2022-09-12T02:53:08;8.70;99.90
16625;DHT22;8426;48.496;9.098;2022-09-12T02:58:15;8.80;99.90
16625;DHT22;8426;48.496;9.098;2022-09-12T03:03:36;9.00;99.90
16625;DHT22;8426;48.496;9.098;2022-09-12T03:08:55;9.10;99.90
16625;DHT22;8426;48.496;9.098;2022-09-12T03:14:09;9.10;99.90
16625;DHT22;8426;48.496;9.098;2022-09-12T03:19:24;9.10;99.90
16625;DHT22;8426;48.496;9.098;2022-09-12T03:24:32;9.00;99.90
16625;DHT22;8426;48.496;9.098;2022-09-12T03:29:39;9.00;99.90
16625;DHT22;8426;48.496;9.098;2022-09-12T03:34:44;9.00;99.90
16625;DHT22;8426;48.496;9.098;2022-09-12T03:39:47;9.00;99.90
16625;DHT22;8426;48.496;9.098;2022-09-12T03:44:51;9.00;99.90
16625;DHT22;8426;48.496;9.098;2022-09-12T03:49:55;9.00;99.90
16625;DHT22;8426;48.496;9.098;2022-09-12T03:54:59;9.00;99.90
16625;DHT22;8426;48.496;9.098;2022-09-12T04:00:03;9.00;99.90
16625;DHT22;8426;48.496;9.098;2022-09-12T04:05:08;8.90;99.90
16625;DHT22;8426;48.496;9.098;2022-09-12T04:10:11;8.90;99.90
16625;DHT22;8426;48.496;9.098;2022-09-12T04:15:17;8.90;99.90
16625;DHT22;8426;48.496;9.098;2022-09-12T04:20:21;8.80;99.90
16625;DHT22;8426;48.496;9.098;2022-09-12T04:25:25;8.80;99.90
16625;DHT22;8426;48.496;9.098;2022-09-12T04:30:29;8.80;99.90
16625;DHT22;8426;48.496;9.098;2022-09-12T04:35:35;8.80;99.90
16625;DHT22;8426;48.496;9.098;2022-09-12T04:40:38;8.90;99.90
16625;DHT22;8426;48.496;9.098;2022-09-12T04:45:41;9.00;99.90
16625;DHT22;8426;48.496;9.098;2022-09-12T04:50:47;9.10;99.90
16625;DHT22;8426;48.496;9.098;2022-09-12T04:55:50;9.20;99.90
16625;DHT22;8426;48.496;9.098;2022-09-12T05:00:53;9.30;99.90
16625;DHT22;8426;48.496;9.098;2022-09-12T05:05:57;9.20;99.90
16625;DHT22;8426;48.496;9.098;2022-09-12T05:11:02;9.20;99.90
16625;DHT22;8426;48.496;9.098;2022-09-12T05:16:07;9.10;99.90
16625;DHT22;8426;48.496;9.098;2022-09-12T05:21:15;9.10;99.90
16625;DHT22;8426;48.496;9.098;2022-09-12T05:26:19;9.10;99.90
16625;DHT22;8426;48.496;9.098;2022-09-12T05:31:23;9.20;99.90
16625;DHT22;8426;48.496;9.098;2022-09-12T05:36:30;9.30;99.90
16625;DHT22;8426;48.496;9.098;2022-09-12T05:41:35;9.50;99.90
16625;DHT22;8426;48.496;9.098;2022-09-12T05:46:40;9.70;99.90
16625;DHT22;8426;48.496;9.098;2022-09-12T05:51:45;10.00;99.90
16625;DHT22;8426;48.496;9.098;2022-09-12T05:56:48;10.20;99.90
16625;DHT22;8426;48.496;9.098;2022-09-12T06:01:51;10.50;99.90
16625;DHT22;8426;48.496;9.098;2022-09-12T06:06:55;10.80;99.90
16625;DHT22;8426;48.496;9.098;2022-09-12T06:11:59;10.90;99.90
16625;DHT22;8426;48.496;9.098;2022-09-12T06:17:02;11.30;99.90
16625;DHT22;8426;48.496;9.098;2022-09-12T06:22:07;12.20;99.90
16625;DHT22;8426;48.496;9.098;2022-09-12T06:27:10;12.70;99.90
16625;DHT22;8426;48.496;9.098;2022-09-12T06:32:13;13.00;99.90
16625;DHT22;8426;48.496;9.098;2022-09-12T06:37:18;13.80;99.90
16625;DHT22;8426;48.496;9.098;2022-09-12T06:42:45;14.10;99.90
16625;DHT22;8426;48.496;9.098;2022-09-12T06:47:49;15.00;99.90
16625;DHT22;8426;48.496;9.098;2022-09-12T06:52:54;15.70;99.90
16625;DHT22;8426;48.496;9.098;2022-09-12T06:57:57;16.40;99.90
16625;DHT22;8426;48.496;9.098;2022-09-12T07:03:00;16.20;99.90
16625;DHT22;8426;48.496;9.098;2022-09-12T07:08:04;16.40;99.90
16625;DHT22;8426;48.496;9.098;2022-09-12T07:13:08;18.30;99.90
16625;DHT22;8426;48.496;9.098;2022-09-12T07:18:11;19.40;99.90
16625;DHT22;8426;48.496;9.098;2022-09-12T07:23:16;18.50;99.90
16625;DHT22;8426;48.496;9.098;2022-09-12T07:28:22;18.50;99.90
16625;DHT22;8426;48.496;9.098;2022-09-12T07:33:27;20.10;99.90
16625;DHT22;8426;48.496;9.098;2022-09-12T07:38:32;22.10;99.90
16625;DHT22;8426;48.496;9.098;2022-09-12T07:43:35;22.70;99.90
16625;DHT22;8426;48.496;9.098;2022-09-12T07:48:38;21.80;99.90
16625;DHT22;8426;48.496;9.098;2022-09-12T07:53:44;20.10;99.90
16625;DHT22;8426;48.496;9.098;2022-09-12T07:58:48;19.70;99.90
16625;DHT22;8426;48.496;9.098;2022-09-12T08:03:53;18.60;99.90
16625;DHT22;8426;48.496;9.098;2022-09-12T08:08:59;18.60;99.90
16625;DHT22;8426;48.496;9.098;2022-09-12T08:14:02;20.10;99.90
16625;DHT22;8426;48.496;9.098;2022-09-12T08:19:06;21.50;99.90
16625;DHT22;8426;48.496;9.098;2022-09-12T08:24:11;23.60;99.90
16625;DHT22;8426;48.496;9.098;2022-09-12T08:29:15;25.00;99.90
16625;DHT22;8426;48.496;9.098;2022-09-12T08:34:18;25.90;99.90
16625;DHT22;8426;48.496;9.098;2022-09-12T08:39:23;26.70;99.90
16625;DHT22;8426;48.496;9.098;2022-09-12T08:50:07;28.30;99.90
16625;DHT22;8426;48.496;9.098;2022-09-12T08:55:22;28.10;99.80
16625;DHT22;8426;48.496;9.098;2022-09-12T09:00:34;27.60;99.40
16625;DHT22;8426;48.496;9.098;2022-09-12T09:05:46;27.90;98.60
16625;DHT22;8426;48.496;9.098;2022-09-12T09:11:00;27.60;98.30
16625;DHT22;8426;48.496;9.098;2022-09-12T09:16:12;27.20;98.80
16625;DHT22;8426;48.496;9.098;2022-09-12T09:21:20;27.40;98.40
16625;DHT22;8426;48.496;9.098;2022-09-12T09:26:29;27.80;98.00
16625;DHT22;8426;48.496;9.098;2022-09-12T09:31:38;27.70;97.20
16625;DHT22;8426;48.496;9.098;2022-09-12T09:36:51;27.10;97.50
16625;DHT22;8426;48.496;9.098;2022-09-12T09:42:07;27.40;97.90
16625;DHT22;8426;48.496;9.098;2022-09-12T09:47:13;26.50;98.50
16625;DHT22;8426;48.496;9.098;2022-09-12T09:52:25;26.40;98.90
16625;DHT22;8426;48.496;9.098;2022-09-12T09:57:45;26.60;99.10
16625;DHT22;8426;48.496;9.098;2022-09-12T10:03:02;25.70;99.90
16625;DHT22;8426;48.496;9.098;2022-09-12T10:08:19;25.20;99.90
16625;DHT22;8426;48.496;9.098;2022-09-12T10:13:34;24.40;99.90
16625;DHT22;8426;48.496;9.098;2022-09-12T10:18:40;23.70;99.90
16625;DHT22;8426;48.496;9.098;2022-09-12T10:23:44;23.30;99.90
16625;DHT22;8426;48.496;9.098;2022-09-12T10:28:50;23.20;99.90
16625;DHT22;8426;48.496;9.098;2022-09-12T10:33:56;23.70;99.90
16625;DHT22;8426;48.496;9.098;2022-09-12T10:39:00;23.80;99.90
16625;DHT22;8426;48.496;9.098;2022-09-12T10:44:15;24.00;99.90
16625;DHT22;8426;48.496;9.098;2022-09-12T10:49:27;24.00;99.90
16625;DHT22;8426;48.496;9.098;2022-09-12T10:54:30;24.20;99.90
16625;DHT22;8426;48.496;9.098;2022-09-12T10:59:53;24.20;99.90
16625;DHT22;8426;48.496;9.098;2022-09-12T11:05:08;24.10;99.90
16625;DHT22;8426;48.496;9.098;2022-09-12T11:10:20;24.30;99.90
16625;DHT22;8426;48.496;9.098;2022-09-12T11:15:37;24.80;99.90
16625;DHT22;8426;48.496;9.098;2022-09-12T11:20:58;24.80;99.90
16625;DHT22;8426;48.496;9.098;2022-09-12T11:26:14;24.90;99.90
16625;DHT22;8426;48.496;9.098;2022-09-12T11:31:44;24.90;99.90
16625;DHT22;8426;48.496;9.098;2022-09-12T11:37:00;25.40;99.90
16625;DHT22;8426;48.496;9.098;2022-09-12T11:42:15;25.10;99.90
16625;DHT22;8426;48.496;9.098;2022-09-12T11:47:48;25.20;99.90
16625;DHT22;8426;48.496;9.098;2022-09-12T11:52:56;25.30;99.90
16625;DHT22;8426;48.496;9.098;2022-09-12T11:57:59;25.90;99.90
16625;DHT22;8426;48.496;9.098;2022-09-12T12:03:10;25.70;99.30
16625;DHT22;8426;48.496;9.098;2022-09-12T12:08:17;25.70;97.60
16625;DHT22;8426;48.496;9.098;2022-09-12T12:13:24;25.70;98.90
16625;DHT22;8426;48.496;9.098;2022-09-12T12:18:31;25.50;98.80
16625;DHT22;8426;48.496;9.098;2022-09-12T12:23:35;25.90;96.60
16625;DHT22;8426;48.496;9.098;2022-09-12T12:28:57;25.80;97.60
16625;DHT22;8426;48.496;9.098;2022-09-12T12:34:21;25.50;97.50
16625;DHT22;8426;48.496;9.098;2022-09-12T12:50:52;25.60;96.90
16625;DHT22;8426;48.496;9.098;2022-09-12T12:55:56;25.60;95.90
16625;DHT22;8426;48.496;9.098;2022-09-12T13:01:09;25.00;95.90
16625;DHT22;8426;48.496;9.098;2022-09-12T13:06:28;25.30;95.80
16625;DHT22;8426;48.496;9.098;2022-09-12T13:11:35;25.40;95.20
16625;DHT22;8426;48.496;9.098;2022-09-12T13:16:53;25.40;94.60
16625;DHT22;8426;48.496;9.098;2022-09-12T13:22:03;25.60;95.60
16625;DHT22;8426;48.496;9.098;2022-09-12T13:27:15;25.40;94.10
16625;DHT22;8426;48.496;9.098;2022-09-12T13:32:19;25.30;95.60
16625;DHT22;8426;48.496;9.098;2022-09-12T13:37:39;24.70;95.10
16625;DHT22;8426;48.496;9.098;2022-09-12T13:43:03;25.00;95.50
16625;DHT22;8426;48.496;9.098;2022-09-12T13:48:13;25.10;94.30
16625;DHT22;8426;48.496;9.098;2022-09-12T13:53:22;25.10;94.00
16625;DHT22;8426;48.496;9.098;2022-09-12T13:58:28;25.10;93.30
16625;DHT22;8426;48.496;9.098;2022-09-12T14:03:33;25.20;93.70
16625;DHT22;8426;48.496;9.098;2022-09-12T14:09:11;25.30;93.70
16625;DHT22;8426;48.496;9.098;2022-09-12T14:14:26;25.10;93.20
16625;DHT22;8426;48.496;9.098;2022-09-12T14:19:56;25.00;95.20
16625;DHT22;8426;48.496;9.098;2022-09-12T14:25:02;25.20;93.60
16625;DHT22;8426;48.496;9.098;2022-09-12T14:30:13;25.20;93.90
16625;DHT22;8426;48.496;9.098;2022-09-12T14:35:46;25.00;93.70
16625;DHT22;8426;48.496;9.098;2022-09-12T14:40:57;24.90;93.20
16625;DHT22;8426;48.496;9.098;2022-09-12T14:46:03;24.70;94.40
16625;DHT22;8426;48.496;9.098;2022-09-12T14:51:15;24.60;94.20
16625;DHT22;8426;48.496;9.098;2022-09-12T14:56:37;24.50;94.70
16625;DHT22;8426;48.496;9.098;2022-09-12T15:01:40;24.40;94.50
16625;DHT22;8426;48.496;9.098;2022-09-12T15:06:43;24.30;94.00
16625;DHT22;8426;48.496;9.098;2022-09-12T15:11:48;24.20;95.20
16625;DHT22;8426;48.496;9.098;2022-09-12T15:16:51;24.20;95.50
16625;DHT22;8426;48.496;9.098;2022-09-12T15:21:55;23.90;95.20
16625;DHT22;8426;48.496;9.098;2022-09-12T15:26:59;23.80;95.50
16625;DHT22;8426;48.496;9.098;2022-09-12T15:32:03;23.70;95.60
16625;DHT22;8426;48.496;9.098;2022-09-12T15:37:10;23.90;95.00
16625;DHT22;8426;48.496;9.098;2022-09-12T15:42:17;23.80;96.00
16625;DHT22;8426;48.496;9.098;2022-09-12T15:47:27;23.60;95.80
16625;DHT22;8426;48.496;9.098;2022-09-12T15:52:30;23.60;96.30
16625;DHT22;8426;48.496;9.098;2022-09-12T15:57:35;23.50;95.50
16625;DHT22;8426;48.496;9.098;2022-09-12T16:02:38;23.40;95.50
16625;DHT22;8426;48.496;9.098;2022-09-12T16:07:42;23.30;96.10
16625;DHT22;8426;48.496;9.098;2022-09-12T16:12:47;23.30;95.10
16625;DHT22;8426;48.496;9.098;2022-09-12T16:17:52;23.20;95.30
16625;DHT22;8426;48.496;9.098;2022-09-12T16:22:55;23.00;96.40
16625;DHT22;8426;48.496;9.098;2022-09-12T16:28:01;22.90;96.20
16625;DHT22;8426;48.496;9.098;2022-09-12T16:33:06;22.70;96.50
16625;DHT22;8426;48.496;9.098;2022-09-12T16:38:10;22.60;96.20
16625;DHT22;8426;48.496;9.098;2022-09-12T16:43:14;22.50;96.70
16625;DHT22;8426;48.496;9.098;2022-09-12T16:48:24;22.30;96.80
16625;DHT22;8426;48.496;9.098;2022-09-12T16:53:29;22.10;97.70
16625;DHT22;8426;48.496;9.098;2022-09-12T16:58:36;21.90;97.90
16625;DHT22;8426;48.496;9.098;2022-09-12T17:03:43;21.60;99.40
16625;DHT22;8426;48.496;9.098;2022-09-12T17:08:48;21.20;99.90
16625;DHT22;8426;48.496;9.098;2022-09-12T17:13:54;21.00;99.90
16625;DHT22;8426;48.496;9.098;2022-09-12T17:19:09;20.80;99.90
16625;DHT22;8426;48.496;9.098;2022-09-12T17:24:14;20.70;99.90
16625;DHT22;8426;48.496;9.098;2022-09-12T17:29:19;20.50;99.90
16625;DHT22;8426;48.496;9.098;2022-09-12T17:34:26;20.30;99.90
16625;DHT22;8426;48.496;9.098;2022-09-12T17:39:29;20.00;99.90
16625;DHT22;8426;48.496;9.098;2022-09-12T17:44:34;19.80;99.90
16625;DHT22;8426;48.496;9.098;2022-09-12T17:49:38;19.50;99.90
16625;DHT22;8426;48.496;9.098;2022-09-12T17:54:41;19.20;99.90
16625;DHT22;8426;48.496;9.098;2022-09-12T17:59:46;19.00;99.90
16625;DHT22;8426;48.496;9.098;2022-09-12T18:04:49;18.90;99.90
16625;DHT22;8426;48.496;9.098;2022-09-12T18:09:52;19.00;99.90
16625;DHT22;8426;48.496;9.098;2022-09-12T18:14:57;18.90;99.90
16625;DHT22;8426;48.496;9.098;2022-09-12T18:20:00;18.60;99.90
16625;DHT22;8426;48.496;9.098;2022-09-12T18:25:04;18.10;99.90
16625;DHT22;8426;48.496;9.098;2022-09-12T18:30:10;17.70;99.90
16625;DHT22;8426;48.496;9.098;2022-09-12T18:35:23;17.60;99.90
16625;DHT22;8426;48.496;9.098;2022-09-12T18:40:26;17.90;99.90
16625;DHT22;8426;48.496;9.098;2022-09-12T18:45:31;17.90;99.90
16625;DHT22;8426;48.496;9.098;2022-09-12T18:50:35;17.80;99.90
16625;DHT22;8426;48.496;9.098;2022-09-12T18:55:38;17.80;99.90
16625;DHT22;8426;48.496;9.098;2022-09-12T19:00:45;17.60;99.90
16625;DHT22;8426;48.496;9.098;2022-09-12T19:05:50;17.50;99.90
16625;DHT22;8426;48.496;9.098;2022-09-12T19:10:54;17.20;99.90
16625;DHT22;8426;48.496;9.098;2022-09-12T19:16:01;16.90;99.90
16625;DHT22;8426;48.496;9.098;2022-09-12T19:21:05;16.60;99.90
16625;DHT22;8426;48.496;9.098;2022-09-12T19:26:10;16.30;99.90
16625;DHT22;8426;48.496;9.098;2022-09-12T19:31:16;16.00;99.90
16625;DHT22;8426;48.496;9.098;2022-09-12T19:36:21;15.60;99.90
16625;DHT22;8426;48.496;9.098;2022-09-12T19:41:44;15.40;99.90
16625;DHT22;8426;48.496;9.098;2022-09-12T19:46:49;15.30;99.90
16625;DHT22;8426;48.496;9.098;2022-09-12T19:51:52;15.30;99.90
16625;DHT22;8426;48.496;9.098;2022-09-12T19:56:55;15.30;99.90
16625;DHT22;8426;48.496;9.098;2022-09-12T20:02:00;15.20;99.90
16625;DHT22;8426;48.496;9.098;2022-09-12T20:07:03;15.20;99.90
16625;DHT22;8426;48.496;9.098;2022-09-12T20:12:06;15.30;99.90
16625;DHT22;8426;48.496;9.098;2022-09-12T20:17:11;15.30;99.90
16625;DHT22;8426;48.496;9.098;2022-09-12T20:22:14;15.30;99.90
16625;DHT22;8426;48.496;9.098;2022-09-12T20:27:17;15.20;99.90
16625;DHT22;8426;48.496;9.098;2022-09-12T20:32:22;15.00;99.90
16625;DHT22;8426;48.496;9.098;2022-09-12T20:37:25;14.80;99.90
16625;DHT22;8426;48.496;9.098;2022-09-12T20:42:28;14.80;99.90
16625;DHT22;8426;48.496;9.098;2022-09-12T20:47:33;14.60;99.90
16625;DHT22;8426;48.496;9.098;2022-09-12T20:52:36;14.50;99.90
16625;DHT22;8426;48.496;9.098;2022-09-12T20:57:39;14.40;99.90
16625;DHT22;8426;48.496;9.098;2022-09-12T21:02:44;14.30;99.90
16625;DHT22;8426;48.496;9.098;2022-09-12T21:07:47;14.20;99.90
16625;DHT22;8426;48.496;9.098;2022-09-12T21:12:51;14.10;99.90
16625;DHT22;8426;48.496;9.098;2022-09-12T21:17:55;14.00;99.90
16625;DHT22;8426;48.496;9.098;2022-09-12T21:22:58;13.80;99.90
16625;DHT22;8426;48.496;9.098;2022-09-12T21:28:02;13.70;99.90
16625;DHT22;8426;48.496;9.098;2022-09-12T21:33:07;13.60;99.90
16625;DHT22;8426;48.496;9.098;2022-09-12T21:38:10;13.50;99.90
16625;DHT22;8426;48.496;9.098;2022-09-12T21:43:14;13.40;99.90
16625;DHT22;8426;48.496;9.098;2022-09-12T21:48:18;13.40;99.90
16625;DHT22;8426;48.496;9.098;2022-09-12T21:53:21;13.30;99.90
16625;DHT22;8426;48.496;9.098;2022-09-12T21:58:25;13.30;99.90
16625;DHT22;8426;48.496;9.098;2022-09-12T22:03:29;13.10;99.90
16625;DHT22;8426;48.496;9.098;2022-09-12T22:08:34;13.10;99.90
16625;DHT22;8426;48.496;9.098;2022-09-12T22:13:39;13.00;99.90
16625;DHT22;8426;48.496;9.098;2022-09-12T22:18:45;12.90;99.90
16625;DHT22;8426;48.496;9.098;2022-09-12T22:23:48;12.90;99.90
16625;DHT22;8426;48.496;9.098;2022-09-12T22:29:10;12.70;99.90
16625;DHT22;8426;48.496;9.098;2022-09-12T22:34:15;12.70;99.90
16625;DHT22;8426;48.496;9.098;2022-09-12T22:39:18;12.60;99.90
16625;DHT22;8426;48.496;9.098;2022-09-12T22:44:22;12.70;99.90
16625;DHT22;8426;48.496;9.098;2022-09-12T22:49:26;12.70;99.90
16625;DHT22;8426;48.496;9.098;2022-09-12T22:54:30;12.60;99.90
16625;DHT22;8426;48.496;9.098;2022-09-12T22:59:33;12.50;99.90
16625;DHT22;8426;48.496;9.098;2022-09-12T23:04:38;12.30;99.90
16625;DHT22;8426;48.496;9.098;2022-09-12T23:09:41;12.20;99.90
16625;DHT22;8426;48.496;9.098;2022-09-12T23:14:44;12.10;99.90
16625;DHT22;8426;48.496;9.098;2022-09-12T23:19:49;12.10;99.90
16625;DHT22;8426;48.496;9.098;2022-09-12T23:24:53;12.00;99.90
16625;DHT22;8426;48.496;9.098;2022-09-12T23:29:56;12.00;99.90
16625;DHT22;8426;48.496;9.098;2022-09-12T23:35:01;12.10;99.90
16625;DHT22;8426;48.496;9.098;2022-09-12T23:40:06;12.10;99.90
16625;DHT22;8426;48.496;9.098;2022-09-12T23:45:10;12.10;99.90
16625;DHT22;8426;48.496;9.098;2022-09-12T23:50:14;12.10;99.90
16625;DHT22;8426;48.496;9.098;2022-09-12T23:55:17;12.00;99.90
